sensor_id;sensor_type;location;lat;lon;timestamp;P1;durP1;ratioP1;P2;durP2;ratioP2
22644;SDS011;11489;50.834;6.752;2024-01-06T00:01:10;5.80;;;4.05;;
22644;SDS011;11489;50.834;6.752;2024-01-06T00:03:37;6.03;;;4.03;;
22644;SDS011;11489;50.834;6.752;2024-01-06T00:06:03;7.25;;;4.45;;
22644;SDS011;11489;50.834;6.752;2024-01-06T00:08:29;7.18;;;4.35;;
22644;SDS011;11489;50.834;6.752;2024-01-06T00:10:54;6.85;;;3.97;;
22644;SDS011;11489;50.834;6.752;2024-01-06T00:13:20;6.47;;;4.38;;
22644;SDS011;11489;50.834;6.752;2024-01-06T00:15:46;5.70;;;4.18;;
22644;SDS011;11489;50.834;6.752;2024-01-06T00:18:11;6.72;;;4.22;;
22644;SDS011;11489;50.834;6.752;2024-01-06T00:20:37;6.07;;;4.18;;
22644;SDS011;11489;50.834;6.752;2024-01-06T00:23:03;6.57;;;4.15;;
22644;SDS011;11489;50.834;6.752;2024-01-06T00:25:29;5.38;;;3.97;;
22644;SDS011;11489;50.834;6.752;2024-01-06T00:27:55;5.75;;;3.90;;
22644;SDS011;11489;50.834;6.752;2024-01-06T00:30:20;5.43;;;3.88;;
22644;SDS011;11489;50.834;6.752;2024-01-06T00:32:46;5.65;;;3.92;;
22644;SDS011;11489;50.834;6.752;2024-01-06T00:35:12;6.78;;;4.10;;
22644;SDS011;11489;50.834;6.752;2024-01-06T00:37:37;5.70;;;3.78;;
22644;SDS011;11489;50.834;6.752;2024-01-06T00:40:03;5.68;;;4.05;;
22644;SDS011;11489;50.834;6.752;2024-01-06T00:42:29;6.57;;;4.35;;
22644;SDS011;11489;50.834;6.752;2024-01-06T00:44:55;6.70;;;4.00;;
22644;SDS011;11489;50.834;6.752;2024-01-06T00:47:20;6.05;;;3.90;;
22644;SDS011;11489;50.834;6.752;2024-01-06T00:49:49;4.47;;;3.22;;
22644;SDS011;11489;50.834;6.752;2024-01-06T00:52:15;4.50;;;3.15;;
22644;SDS011;11489;50.834;6.752;2024-01-06T00:54:40;4.05;;;3.17;;
22644;SDS011;11489;50.834;6.752;2024-01-06T00:57:06;5.13;;;3.17;;
22644;SDS011;11489;50.834;6.752;2024-01-06T00:59:32;5.07;;;2.95;;
22644;SDS011;11489;50.834;6.752;2024-01-06T01:01:58;4.50;;;2.72;;
22644;SDS011;11489;50.834;6.752;2024-01-06T01:04:24;5.90;;;2.60;;
22644;SDS011;11489;50.834;6.752;2024-01-06T01:06:49;3.72;;;2.60;;
22644;SDS011;11489;50.834;6.752;2024-01-06T01:09:15;3.97;;;2.60;;
22644;SDS011;11489;50.834;6.752;2024-01-06T01:11:41;4.32;;;2.88;;
22644;SDS011;11489;50.834;6.752;2024-01-06T01:14:07;3.03;;;2.60;;
22644;SDS011;11489;50.834;6.752;2024-01-06T01:16:33;3.42;;;2.50;;
22644;SDS011;11489;50.834;6.752;2024-01-06T01:18:58;3.58;;;2.63;;
22644;SDS011;11489;50.834;6.752;2024-01-06T01:21:24;3.55;;;2.78;;
22644;SDS011;11489;50.834;6.752;2024-01-06T01:23:50;5.95;;;3.10;;
22644;SDS011;11489;50.834;6.752;2024-01-06T01:26:15;5.28;;;3.08;;
22644;SDS011;11489;50.834;6.752;2024-01-06T01:28:41;4.38;;;3.10;;
22644;SDS011;11489;50.834;6.752;2024-01-06T01:31:07;4.65;;;2.83;;
22644;SDS011;11489;50.834;6.752;2024-01-06T01:33:33;6.13;;;2.90;;
22644;SDS011;11489;50.834;6.752;2024-01-06T01:35:59;5.10;;;3.20;;
22644;SDS011;11489;50.834;6.752;2024-01-06T01:38:24;4.45;;;3.08;;
22644;SDS011;11489;50.834;6.752;2024-01-06T01:40:50;5.20;;;3.30;;
22644;SDS011;11489;50.834;6.752;2024-01-06T01:43:19;6.07;;;3.50;;
22644;SDS011;11489;50.834;6.752;2024-01-06T01:45:48;7.53;;;4.32;;
22644;SDS011;11489;50.834;6.752;2024-01-06T01:48:18;7.13;;;4.50;;
22644;SDS011;11489;50.834;6.752;2024-01-06T01:50:45;8.75;;;4.60;;
22644;SDS011;11489;50.834;6.752;2024-01-06T01:53:12;7.63;;;4.97;;
22644;SDS011;11489;50.834;6.752;2024-01-06T01:55:39;6.22;;;4.65;;
22644;SDS011;11489;50.834;6.752;2024-01-06T01:58:09;9.45;;;5.57;;
22644;SDS011;11489;50.834;6.752;2024-01-06T02:00:35;9.07;;;5.65;;
22644;SDS011;11489;50.834;6.752;2024-01-06T02:03:02;10.05;;;6.38;;
22644;SDS011;11489;50.834;6.752;2024-01-06T02:05:29;10.30;;;5.93;;
22644;SDS011;11489;50.834;6.752;2024-01-06T02:07:55;10.77;;;6.55;;
22644;SDS011;11489;50.834;6.752;2024-01-06T02:10:21;10.13;;;6.47;;
22644;SDS011;11489;50.834;6.752;2024-01-06T02:12:47;10.85;;;7.30;;
22644;SDS011;11489;50.834;6.752;2024-01-06T02:15:14;11.27;;;6.70;;
22644;SDS011;11489;50.834;6.752;2024-01-06T02:17:40;9.93;;;5.90;;
22644;SDS011;11489;50.834;6.752;2024-01-06T02:20:08;9.95;;;6.65;;
22644;SDS011;11489;50.834;6.752;2024-01-06T02:22:36;12.20;;;7.30;;
22644;SDS011;11489;50.834;6.752;2024-01-06T02:25:02;11.88;;;7.28;;
22644;SDS011;11489;50.834;6.752;2024-01-06T02:27:32;11.75;;;7.65;;
22644;SDS011;11489;50.834;6.752;2024-01-06T02:29:58;12.45;;;8.18;;
22644;SDS011;11489;50.834;6.752;2024-01-06T02:32:24;12.02;;;7.80;;
22644;SDS011;11489;50.834;6.752;2024-01-06T02:34:49;15.15;;;8.57;;
22644;SDS011;11489;50.834;6.752;2024-01-06T02:37:15;13.85;;;8.70;;
22644;SDS011;11489;50.834;6.752;2024-01-06T02:39:41;16.42;;;9.00;;
22644;SDS011;11489;50.834;6.752;2024-01-06T02:42:06;17.50;;;9.13;;
22644;SDS011;11489;50.834;6.752;2024-01-06T02:44:32;16.38;;;9.35;;
22644;SDS011;11489;50.834;6.752;2024-01-06T02:46:57;16.65;;;9.57;;
22644;SDS011;11489;50.834;6.752;2024-01-06T02:49:23;14.18;;;9.10;;
22644;SDS011;11489;50.834;6.752;2024-01-06T02:51:49;17.48;;;9.50;;
22644;SDS011;11489;50.834;6.752;2024-01-06T02:54:14;16.45;;;9.82;;
22644;SDS011;11489;50.834;6.752;2024-01-06T02:56:40;16.05;;;9.70;;
22644;SDS011;11489;50.834;6.752;2024-01-06T02:59:05;15.40;;;9.27;;
22644;SDS011;11489;50.834;6.752;2024-01-06T03:01:31;15.82;;;9.30;;
22644;SDS011;11489;50.834;6.752;2024-01-06T03:03:57;15.05;;;9.48;;
22644;SDS011;11489;50.834;6.752;2024-01-06T03:06:23;15.98;;;10.23;;
22644;SDS011;11489;50.834;6.752;2024-01-06T03:08:49;16.98;;;9.85;;
22644;SDS011;11489;50.834;6.752;2024-01-06T03:11:14;15.90;;;9.63;;
22644;SDS011;11489;50.834;6.752;2024-01-06T03:13:40;17.48;;;10.00;;
22644;SDS011;11489;50.834;6.752;2024-01-06T03:16:06;16.73;;;10.15;;
22644;SDS011;11489;50.834;6.752;2024-01-06T03:18:31;18.88;;;10.05;;
22644;SDS011;11489;50.834;6.752;2024-01-06T03:20:57;18.33;;;9.55;;
22644;SDS011;11489;50.834;6.752;2024-01-06T03:23:23;15.90;;;9.98;;
22644;SDS011;11489;50.834;6.752;2024-01-06T03:25:48;20.33;;;11.65;;
22644;SDS011;11489;50.834;6.752;2024-01-06T03:28:14;17.10;;;10.90;;
22644;SDS011;11489;50.834;6.752;2024-01-06T03:30:40;17.55;;;10.73;;
22644;SDS011;11489;50.834;6.752;2024-01-06T03:33:06;19.58;;;11.32;;
22644;SDS011;11489;50.834;6.752;2024-01-06T03:35:31;21.20;;;11.88;;
22644;SDS011;11489;50.834;6.752;2024-01-06T03:37:57;19.73;;;11.27;;
22644;SDS011;11489;50.834;6.752;2024-01-06T03:40:23;22.27;;;12.55;;
22644;SDS011;11489;50.834;6.752;2024-01-06T03:42:48;21.50;;;12.57;;
22644;SDS011;11489;50.834;6.752;2024-01-06T03:45:14;23.08;;;12.45;;
22644;SDS011;11489;50.834;6.752;2024-01-06T03:47:40;22.33;;;13.10;;
22644;SDS011;11489;50.834;6.752;2024-01-06T03:50:05;25.10;;;13.05;;
22644;SDS011;11489;50.834;6.752;2024-01-06T03:52:31;24.02;;;13.15;;
22644;SDS011;11489;50.834;6.752;2024-01-06T03:54:57;27.40;;;13.48;;
22644;SDS011;11489;50.834;6.752;2024-01-06T03:57:23;26.83;;;14.77;;
22644;SDS011;11489;50.834;6.752;2024-01-06T03:59:48;29.38;;;14.48;;
22644;SDS011;11489;50.834;6.752;2024-01-06T04:02:14;26.05;;;14.60;;
22644;SDS011;11489;50.834;6.752;2024-01-06T04:04:39;26.67;;;14.77;;
22644;SDS011;11489;50.834;6.752;2024-01-06T04:07:05;28.05;;;14.25;;
22644;SDS011;11489;50.834;6.752;2024-01-06T04:09:32;26.60;;;14.45;;
22644;SDS011;11489;50.834;6.752;2024-01-06T04:11:57;25.05;;;14.27;;
22644;SDS011;11489;50.834;6.752;2024-01-06T04:14:23;26.58;;;14.18;;
22644;SDS011;11489;50.834;6.752;2024-01-06T04:16:48;28.15;;;14.95;;
22644;SDS011;11489;50.834;6.752;2024-01-06T04:19:14;22.90;;;13.43;;
22644;SDS011;11489;50.834;6.752;2024-01-06T04:21:40;27.23;;;13.90;;
22644;SDS011;11489;50.834;6.752;2024-01-06T04:24:06;25.77;;;13.68;;
22644;SDS011;11489;50.834;6.752;2024-01-06T04:26:31;27.73;;;13.88;;
22644;SDS011;11489;50.834;6.752;2024-01-06T04:28:57;27.13;;;14.98;;
22644;SDS011;11489;50.834;6.752;2024-01-06T04:31:23;26.00;;;13.75;;
22644;SDS011;11489;50.834;6.752;2024-01-06T04:33:48;25.75;;;13.77;;
22644;SDS011;11489;50.834;6.752;2024-01-06T04:36:14;27.10;;;13.90;;
22644;SDS011;11489;50.834;6.752;2024-01-06T04:38:39;24.80;;;13.82;;
22644;SDS011;11489;50.834;6.752;2024-01-06T04:41:05;25.05;;;13.38;;
22644;SDS011;11489;50.834;6.752;2024-01-06T04:43:31;27.65;;;14.65;;
22644;SDS011;11489;50.834;6.752;2024-01-06T04:45:56;24.15;;;13.48;;
22644;SDS011;11489;50.834;6.752;2024-01-06T04:48:23;24.38;;;14.13;;
22644;SDS011;11489;50.834;6.752;2024-01-06T04:50:49;26.10;;;14.73;;
22644;SDS011;11489;50.834;6.752;2024-01-06T04:53:14;26.58;;;13.95;;
22644;SDS011;11489;50.834;6.752;2024-01-06T04:55:40;24.75;;;13.60;;
22644;SDS011;11489;50.834;6.752;2024-01-06T04:58:06;22.85;;;12.68;;
22644;SDS011;11489;50.834;6.752;2024-01-06T05:00:31;26.70;;;13.35;;
22644;SDS011;11489;50.834;6.752;2024-01-06T05:02:57;21.52;;;12.70;;
22644;SDS011;11489;50.834;6.752;2024-01-06T05:05:23;25.33;;;13.80;;
22644;SDS011;11489;50.834;6.752;2024-01-06T05:07:48;23.40;;;12.68;;
22644;SDS011;11489;50.834;6.752;2024-01-06T05:10:14;25.42;;;12.85;;
22644;SDS011;11489;50.834;6.752;2024-01-06T05:12:40;24.98;;;12.75;;
22644;SDS011;11489;50.834;6.752;2024-01-06T05:15:05;23.27;;;12.60;;
22644;SDS011;11489;50.834;6.752;2024-01-06T05:17:31;25.00;;;12.80;;
22644;SDS011;11489;50.834;6.752;2024-01-06T05:19:57;25.20;;;12.88;;
22644;SDS011;11489;50.834;6.752;2024-01-06T05:22:23;28.58;;;14.23;;
22644;SDS011;11489;50.834;6.752;2024-01-06T05:24:48;29.02;;;13.65;;
22644;SDS011;11489;50.834;6.752;2024-01-06T05:27:18;26.00;;;13.30;;
22644;SDS011;11489;50.834;6.752;2024-01-06T05:29:44;30.48;;;14.98;;
22644;SDS011;11489;50.834;6.752;2024-01-06T05:32:10;26.98;;;14.25;;
22644;SDS011;11489;50.834;6.752;2024-01-06T05:34:36;28.13;;;14.45;;
22644;SDS011;11489;50.834;6.752;2024-01-06T05:37:01;30.10;;;14.48;;
22644;SDS011;11489;50.834;6.752;2024-01-06T05:39:27;25.42;;;13.85;;
22644;SDS011;11489;50.834;6.752;2024-01-06T05:41:53;28.17;;;14.05;;
22644;SDS011;11489;50.834;6.752;2024-01-06T05:44:18;26.27;;;13.30;;
22644;SDS011;11489;50.834;6.752;2024-01-06T05:46:44;31.30;;;14.93;;
22644;SDS011;11489;50.834;6.752;2024-01-06T05:49:10;33.55;;;15.65;;
22644;SDS011;11489;50.834;6.752;2024-01-06T05:51:35;33.10;;;16.85;;
22644;SDS011;11489;50.834;6.752;2024-01-06T05:54:01;36.97;;;16.88;;
22644;SDS011;11489;50.834;6.752;2024-01-06T05:56:28;32.95;;;15.88;;
22644;SDS011;11489;50.834;6.752;2024-01-06T05:58:54;33.13;;;15.43;;
22644;SDS011;11489;50.834;6.752;2024-01-06T06:01:20;27.65;;;14.88;;
22644;SDS011;11489;50.834;6.752;2024-01-06T06:03:46;30.45;;;14.25;;
22644;SDS011;11489;50.834;6.752;2024-01-06T06:06:13;28.95;;;14.15;;
22644;SDS011;11489;50.834;6.752;2024-01-06T06:08:40;27.00;;;14.38;;
22644;SDS011;11489;50.834;6.752;2024-01-06T06:11:07;27.05;;;13.30;;
22644;SDS011;11489;50.834;6.752;2024-01-06T06:13:39;27.05;;;14.15;;
22644;SDS011;11489;50.834;6.752;2024-01-06T06:16:06;26.77;;;12.90;;
22644;SDS011;11489;50.834;6.752;2024-01-06T06:18:34;24.33;;;12.00;;
22644;SDS011;11489;50.834;6.752;2024-01-06T06:21:00;26.90;;;13.90;;
22644;SDS011;11489;50.834;6.752;2024-01-06T06:23:30;24.52;;;12.00;;
22644;SDS011;11489;50.834;6.752;2024-01-06T06:25:55;25.83;;;12.32;;
22644;SDS011;11489;50.834;6.752;2024-01-06T06:28:21;26.92;;;12.05;;
22644;SDS011;11489;50.834;6.752;2024-01-06T06:30:47;22.98;;;12.07;;
22644;SDS011;11489;50.834;6.752;2024-01-06T06:33:12;23.77;;;11.60;;
22644;SDS011;11489;50.834;6.752;2024-01-06T06:35:38;22.13;;;11.35;;
22644;SDS011;11489;50.834;6.752;2024-01-06T06:38:04;24.05;;;11.75;;
22644;SDS011;11489;50.834;6.752;2024-01-06T06:40:29;22.73;;;11.73;;
22644;SDS011;11489;50.834;6.752;2024-01-06T06:42:55;20.65;;;11.32;;
22644;SDS011;11489;50.834;6.752;2024-01-06T06:45:21;20.15;;;10.63;;
22644;SDS011;11489;50.834;6.752;2024-01-06T06:47:50;21.17;;;10.88;;
22644;SDS011;11489;50.834;6.752;2024-01-06T06:50:16;23.65;;;11.27;;
22644;SDS011;11489;50.834;6.752;2024-01-06T06:52:42;23.00;;;11.25;;
22644;SDS011;11489;50.834;6.752;2024-01-06T06:55:09;22.92;;;10.88;;
22644;SDS011;11489;50.834;6.752;2024-01-06T06:57:35;23.45;;;11.60;;
22644;SDS011;11489;50.834;6.752;2024-01-06T07:00:01;20.88;;;10.25;;
22644;SDS011;11489;50.834;6.752;2024-01-06T07:02:27;22.67;;;9.70;;
22644;SDS011;11489;50.834;6.752;2024-01-06T07:04:52;20.80;;;9.68;;
22644;SDS011;11489;50.834;6.752;2024-01-06T07:07:18;27.58;;;10.43;;
22644;SDS011;11489;50.834;6.752;2024-01-06T07:09:44;21.20;;;9.75;;
22644;SDS011;11489;50.834;6.752;2024-01-06T07:12:10;22.35;;;10.32;;
22644;SDS011;11489;50.834;6.752;2024-01-06T07:14:35;22.13;;;10.18;;
22644;SDS011;11489;50.834;6.752;2024-01-06T07:17:02;23.70;;;9.60;;
22644;SDS011;11489;50.834;6.752;2024-01-06T07:19:29;25.00;;;10.32;;
22644;SDS011;11489;50.834;6.752;2024-01-06T07:21:58;23.13;;;10.10;;
22644;SDS011;11489;50.834;6.752;2024-01-06T07:24:23;24.67;;;10.60;;
22644;SDS011;11489;50.834;6.752;2024-01-06T07:26:49;25.52;;;11.07;;
22644;SDS011;11489;50.834;6.752;2024-01-06T07:29:15;27.02;;;11.30;;
22644;SDS011;11489;50.834;6.752;2024-01-06T07:31:41;21.55;;;10.98;;
22644;SDS011;11489;50.834;6.752;2024-01-06T07:34:06;24.60;;;10.30;;
22644;SDS011;11489;50.834;6.752;2024-01-06T07:36:32;23.52;;;10.60;;
22644;SDS011;11489;50.834;6.752;2024-01-06T07:38:58;23.95;;;10.80;;
22644;SDS011;11489;50.834;6.752;2024-01-06T07:41:23;23.25;;;11.00;;
22644;SDS011;11489;50.834;6.752;2024-01-06T07:43:49;23.95;;;10.55;;
22644;SDS011;11489;50.834;6.752;2024-01-06T07:46:14;24.90;;;10.95;;
22644;SDS011;11489;50.834;6.752;2024-01-06T07:48:40;26.92;;;10.57;;
22644;SDS011;11489;50.834;6.752;2024-01-06T07:51:06;23.17;;;10.55;;
22644;SDS011;11489;50.834;6.752;2024-01-06T07:53:31;24.20;;;10.68;;
22644;SDS011;11489;50.834;6.752;2024-01-06T07:55:58;21.55;;;10.23;;
22644;SDS011;11489;50.834;6.752;2024-01-06T07:58:24;22.98;;;10.77;;
22644;SDS011;11489;50.834;6.752;2024-01-06T08:00:50;23.40;;;10.68;;
22644;SDS011;11489;50.834;6.752;2024-01-06T08:03:15;26.10;;;11.00;;
22644;SDS011;11489;50.834;6.752;2024-01-06T08:05:41;24.02;;;10.93;;
22644;SDS011;11489;50.834;6.752;2024-01-06T08:08:07;23.98;;;10.90;;
22644;SDS011;11489;50.834;6.752;2024-01-06T08:10:33;23.55;;;10.55;;
22644;SDS011;11489;50.834;6.752;2024-01-06T08:12:58;22.63;;;10.60;;
22644;SDS011;11489;50.834;6.752;2024-01-06T08:15:24;24.33;;;11.52;;
22644;SDS011;11489;50.834;6.752;2024-01-06T08:17:50;23.20;;;11.32;;
22644;SDS011;11489;50.834;6.752;2024-01-06T08:20:15;20.98;;;10.35;;
22644;SDS011;11489;50.834;6.752;2024-01-06T08:22:41;22.52;;;9.80;;
22644;SDS011;11489;50.834;6.752;2024-01-06T08:25:07;21.00;;;9.23;;
22644;SDS011;11489;50.834;6.752;2024-01-06T08:27:33;22.75;;;9.25;;
22644;SDS011;11489;50.834;6.752;2024-01-06T08:29:59;20.13;;;9.65;;
22644;SDS011;11489;50.834;6.752;2024-01-06T08:32:24;21.15;;;9.68;;
22644;SDS011;11489;50.834;6.752;2024-01-06T08:34:50;19.48;;;9.32;;
22644;SDS011;11489;50.834;6.752;2024-01-06T08:37:16;21.80;;;9.60;;
22644;SDS011;11489;50.834;6.752;2024-01-06T08:39:41;20.67;;;9.25;;
22644;SDS011;11489;50.834;6.752;2024-01-06T08:42:07;20.77;;;9.15;;
22644;SDS011;11489;50.834;6.752;2024-01-06T08:44:33;19.67;;;9.65;;
22644;SDS011;11489;50.834;6.752;2024-01-06T08:46:59;23.13;;;10.57;;
22644;SDS011;11489;50.834;6.752;2024-01-06T08:49:24;24.15;;;9.43;;
22644;SDS011;11489;50.834;6.752;2024-01-06T08:51:50;20.13;;;9.38;;
22644;SDS011;11489;50.834;6.752;2024-01-06T08:54:16;21.08;;;9.52;;
22644;SDS011;11489;50.834;6.752;2024-01-06T08:56:41;20.92;;;9.43;;
22644;SDS011;11489;50.834;6.752;2024-01-06T08:59:07;19.40;;;9.30;;
22644;SDS011;11489;50.834;6.752;2024-01-06T09:01:33;26.98;;;10.82;;
22644;SDS011;11489;50.834;6.752;2024-01-06T09:04:01;23.30;;;10.45;;
22644;SDS011;11489;50.834;6.752;2024-01-06T09:06:27;20.77;;;9.82;;
22644;SDS011;11489;50.834;6.752;2024-01-06T09:08:53;19.85;;;9.77;;
22644;SDS011;11489;50.834;6.752;2024-01-06T09:11:19;18.98;;;9.50;;
22644;SDS011;11489;50.834;6.752;2024-01-06T09:13:44;19.65;;;9.13;;
22644;SDS011;11489;50.834;6.752;2024-01-06T09:16:10;17.70;;;8.82;;
22644;SDS011;11489;50.834;6.752;2024-01-06T09:18:36;17.90;;;8.80;;
22644;SDS011;11489;50.834;6.752;2024-01-06T09:21:01;21.77;;;10.02;;
22644;SDS011;11489;50.834;6.752;2024-01-06T09:23:28;19.25;;;9.25;;
22644;SDS011;11489;50.834;6.752;2024-01-06T09:25:54;21.67;;;8.75;;
22644;SDS011;11489;50.834;6.752;2024-01-06T09:28:20;19.55;;;9.23;;
22644;SDS011;11489;50.834;6.752;2024-01-06T09:30:48;18.08;;;8.50;;
22644;SDS011;11489;50.834;6.752;2024-01-06T09:33:14;16.45;;;8.00;;
22644;SDS011;11489;50.834;6.752;2024-01-06T09:35:42;17.65;;;8.15;;
22644;SDS011;11489;50.834;6.752;2024-01-06T09:38:09;21.95;;;8.52;;
22644;SDS011;11489;50.834;6.752;2024-01-06T09:40:35;19.65;;;9.27;;
22644;SDS011;11489;50.834;6.752;2024-01-06T09:43:07;22.02;;;8.95;;
22644;SDS011;11489;50.834;6.752;2024-01-06T09:45:33;18.65;;;9.05;;
22644;SDS011;11489;50.834;6.752;2024-01-06T09:47:59;18.23;;;8.68;;
22644;SDS011;11489;50.834;6.752;2024-01-06T09:50:29;16.83;;;8.02;;
22644;SDS011;11489;50.834;6.752;2024-01-06T09:52:55;16.30;;;8.25;;
22644;SDS011;11489;50.834;6.752;2024-01-06T09:55:30;17.38;;;8.30;;
22644;SDS011;11489;50.834;6.752;2024-01-06T09:57:56;15.32;;;8.05;;
22644;SDS011;11489;50.834;6.752;2024-01-06T10:00:21;16.92;;;8.40;;
22644;SDS011;11489;50.834;6.752;2024-01-06T10:02:48;22.35;;;9.07;;
22644;SDS011;11489;50.834;6.752;2024-01-06T10:05:15;21.83;;;9.25;;
22644;SDS011;11489;50.834;6.752;2024-01-06T10:07:47;20.00;;;8.65;;
22644;SDS011;11489;50.834;6.752;2024-01-06T10:10:14;20.58;;;9.10;;
22644;SDS011;11489;50.834;6.752;2024-01-06T10:12:41;18.10;;;8.85;;
22644;SDS011;11489;50.834;6.752;2024-01-06T10:15:07;17.80;;;9.10;;
22644;SDS011;11489;50.834;6.752;2024-01-06T10:17:40;20.90;;;9.10;;
22644;SDS011;11489;50.834;6.752;2024-01-06T10:20:09;19.48;;;8.80;;
22644;SDS011;11489;50.834;6.752;2024-01-06T10:22:37;16.95;;;8.75;;
22644;SDS011;11489;50.834;6.752;2024-01-06T10:25:07;19.83;;;9.27;;
22644;SDS011;11489;50.834;6.752;2024-01-06T10:27:42;17.98;;;8.70;;
22644;SDS011;11489;50.834;6.752;2024-01-06T10:30:09;18.80;;;8.93;;
22644;SDS011;11489;50.834;6.752;2024-01-06T10:32:35;17.70;;;8.38;;
22644;SDS011;11489;50.834;6.752;2024-01-06T10:35:01;16.00;;;8.15;;
22644;SDS011;11489;50.834;6.752;2024-01-06T10:37:28;17.60;;;8.02;;
22644;SDS011;11489;50.834;6.752;2024-01-06T10:40:13;15.40;;;7.72;;
22644;SDS011;11489;50.834;6.752;2024-01-06T10:42:43;15.82;;;7.63;;
22644;SDS011;11489;50.834;6.752;2024-01-06T10:45:13;20.65;;;9.90;;
22644;SDS011;11489;50.834;6.752;2024-01-06T10:47:40;20.58;;;9.48;;
22644;SDS011;11489;50.834;6.752;2024-01-06T10:50:09;20.65;;;9.65;;
22644;SDS011;11489;50.834;6.752;2024-01-06T10:52:35;20.73;;;9.82;;
22644;SDS011;11489;50.834;6.752;2024-01-06T10:55:02;18.75;;;8.27;;
22644;SDS011;11489;50.834;6.752;2024-01-06T10:57:30;17.58;;;8.10;;
22644;SDS011;11489;50.834;6.752;2024-01-06T10:59:59;17.23;;;8.48;;
22644;SDS011;11489;50.834;6.752;2024-01-06T11:02:25;17.45;;;8.50;;
22644;SDS011;11489;50.834;6.752;2024-01-06T11:04:52;17.48;;;8.20;;
22644;SDS011;11489;50.834;6.752;2024-01-06T11:07:19;18.48;;;8.57;;
22644;SDS011;11489;50.834;6.752;2024-01-06T11:12:41;19.33;;;8.52;;
22644;SDS011;11489;50.834;6.752;2024-01-06T11:15:07;18.15;;;8.23;;
22644;SDS011;11489;50.834;6.752;2024-01-06T11:20:15;18.40;;;8.73;;
22644;SDS011;11489;50.834;6.752;2024-01-06T11:22:41;18.50;;;8.48;;
22644;SDS011;11489;50.834;6.752;2024-01-06T11:25:07;20.30;;;7.65;;
22644;SDS011;11489;50.834;6.752;2024-01-06T11:27:37;14.48;;;7.35;;
22644;SDS011;11489;50.834;6.752;2024-01-06T11:30:03;20.50;;;8.60;;
22644;SDS011;11489;50.834;6.752;2024-01-06T11:32:33;19.75;;;8.95;;
22644;SDS011;11489;50.834;6.752;2024-01-06T11:35:11;18.80;;;8.52;;
22644;SDS011;11489;50.834;6.752;2024-01-06T11:40:10;20.25;;;9.32;;
22644;SDS011;11489;50.834;6.752;2024-01-06T11:42:46;17.60;;;8.38;;
22644;SDS011;11489;50.834;6.752;2024-01-06T11:45:13;18.65;;;8.55;;
22644;SDS011;11489;50.834;6.752;2024-01-06T11:47:43;17.65;;;8.15;;
22644;SDS011;11489;50.834;6.752;2024-01-06T11:50:13;15.20;;;7.78;;
22644;SDS011;11489;50.834;6.752;2024-01-06T11:52:38;16.35;;;7.20;;
22644;SDS011;11489;50.834;6.752;2024-01-06T11:55:04;17.77;;;7.90;;
22644;SDS011;11489;50.834;6.752;2024-01-06T11:57:34;17.67;;;7.78;;
22644;SDS011;11489;50.834;6.752;2024-01-06T11:59:59;14.27;;;7.18;;
22644;SDS011;11489;50.834;6.752;2024-01-06T12:02:25;15.13;;;7.43;;
22644;SDS011;11489;50.834;6.752;2024-01-06T12:04:51;17.77;;;7.03;;
22644;SDS011;11489;50.834;6.752;2024-01-06T12:07:18;17.95;;;7.72;;
22644;SDS011;11489;50.834;6.752;2024-01-06T12:09:47;15.82;;;7.28;;
22644;SDS011;11489;50.834;6.752;2024-01-06T12:12:16;15.02;;;7.07;;
22644;SDS011;11489;50.834;6.752;2024-01-06T12:14:43;15.80;;;7.15;;
22644;SDS011;11489;50.834;6.752;2024-01-06T12:17:09;14.05;;;7.10;;
22644;SDS011;11489;50.834;6.752;2024-01-06T12:19:35;20.70;;;7.35;;
22644;SDS011;11489;50.834;6.752;2024-01-06T12:22:01;15.15;;;6.88;;
22644;SDS011;11489;50.834;6.752;2024-01-06T12:24:28;17.80;;;7.80;;
22644;SDS011;11489;50.834;6.752;2024-01-06T12:26:55;16.13;;;7.70;;
22644;SDS011;11489;50.834;6.752;2024-01-06T12:29:22;17.95;;;8.35;;
22644;SDS011;11489;50.834;6.752;2024-01-06T12:31:48;16.23;;;7.45;;
22644;SDS011;11489;50.834;6.752;2024-01-06T12:34:13;15.50;;;7.43;;
22644;SDS011;11489;50.834;6.752;2024-01-06T12:36:40;16.27;;;7.80;;
22644;SDS011;11489;50.834;6.752;2024-01-06T12:39:11;16.13;;;8.18;;
22644;SDS011;11489;50.834;6.752;2024-01-06T12:41:41;17.15;;;7.60;;
22644;SDS011;11489;50.834;6.752;2024-01-06T12:44:07;20.88;;;10.52;;
22644;SDS011;11489;50.834;6.752;2024-01-06T12:46:34;17.92;;;9.23;;
22644;SDS011;11489;50.834;6.752;2024-01-06T12:49:00;16.30;;;8.60;;
22644;SDS011;11489;50.834;6.752;2024-01-06T12:51:27;17.42;;;9.18;;
22644;SDS011;11489;50.834;6.752;2024-01-06T12:53:53;18.05;;;8.80;;
22644;SDS011;11489;50.834;6.752;2024-01-06T12:56:19;17.30;;;8.68;;
22644;SDS011;11489;50.834;6.752;2024-01-06T12:58:45;16.88;;;7.97;;
22644;SDS011;11489;50.834;6.752;2024-01-06T13:01:11;19.17;;;8.55;;
22644;SDS011;11489;50.834;6.752;2024-01-06T13:03:36;23.73;;;10.00;;
22644;SDS011;11489;50.834;6.752;2024-01-06T13:06:02;24.65;;;10.30;;
22644;SDS011;11489;50.834;6.752;2024-01-06T13:08:28;23.77;;;10.32;;
22644;SDS011;11489;50.834;6.752;2024-01-06T13:10:54;20.67;;;10.10;;
22644;SDS011;11489;50.834;6.752;2024-01-06T13:13:21;24.95;;;11.35;;
22644;SDS011;11489;50.834;6.752;2024-01-06T13:15:47;19.83;;;9.85;;
22644;SDS011;11489;50.834;6.752;2024-01-06T13:18:12;24.13;;;10.75;;
22644;SDS011;11489;50.834;6.752;2024-01-06T13:20:38;23.15;;;10.77;;
22644;SDS011;11489;50.834;6.752;2024-01-06T13:23:06;27.83;;;11.88;;
22644;SDS011;11489;50.834;6.752;2024-01-06T13:25:32;27.33;;;12.35;;
22644;SDS011;11489;50.834;6.752;2024-01-06T13:27:59;30.17;;;11.38;;
22644;SDS011;11489;50.834;6.752;2024-01-06T13:30:25;23.93;;;11.00;;
22644;SDS011;11489;50.834;6.752;2024-01-06T13:32:51;24.00;;;10.93;;
22644;SDS011;11489;50.834;6.752;2024-01-06T13:35:22;24.05;;;10.75;;
22644;SDS011;11489;50.834;6.752;2024-01-06T13:37:53;24.00;;;9.82;;
22644;SDS011;11489;50.834;6.752;2024-01-06T13:40:20;25.38;;;11.13;;
22644;SDS011;11489;50.834;6.752;2024-01-06T13:42:47;21.77;;;9.63;;
22644;SDS011;11489;50.834;6.752;2024-01-06T13:45:14;23.83;;;10.15;;
22644;SDS011;11489;50.834;6.752;2024-01-06T13:47:40;25.13;;;10.27;;
22644;SDS011;11489;50.834;6.752;2024-01-06T13:50:09;28.85;;;12.23;;
22644;SDS011;11489;50.834;6.752;2024-01-06T13:52:36;28.05;;;12.05;;
22644;SDS011;11489;50.834;6.752;2024-01-06T13:55:02;26.65;;;11.25;;
22644;SDS011;11489;50.834;6.752;2024-01-06T13:57:28;25.30;;;11.65;;
22644;SDS011;11489;50.834;6.752;2024-01-06T13:59:54;25.88;;;10.82;;
22644;SDS011;11489;50.834;6.752;2024-01-06T14:02:20;26.83;;;11.02;;
22644;SDS011;11489;50.834;6.752;2024-01-06T14:04:46;27.88;;;10.98;;
22644;SDS011;11489;50.834;6.752;2024-01-06T14:07:11;23.73;;;10.55;;
22644;SDS011;11489;50.834;6.752;2024-01-06T14:09:37;19.70;;;9.20;;
22644;SDS011;11489;50.834;6.752;2024-01-06T14:12:03;20.63;;;9.90;;
22644;SDS011;11489;50.834;6.752;2024-01-06T14:14:33;25.55;;;10.65;;
22644;SDS011;11489;50.834;6.752;2024-01-06T14:16:58;18.20;;;8.90;;
22644;SDS011;11489;50.834;6.752;2024-01-06T14:19:24;19.05;;;8.80;;
22644;SDS011;11489;50.834;6.752;2024-01-06T14:21:50;17.55;;;7.63;;
22644;SDS011;11489;50.834;6.752;2024-01-06T14:24:17;20.40;;;8.73;;
22644;SDS011;11489;50.834;6.752;2024-01-06T14:26:49;18.30;;;8.70;;
22644;SDS011;11489;50.834;6.752;2024-01-06T14:29:15;21.08;;;9.13;;
22644;SDS011;11489;50.834;6.752;2024-01-06T14:31:42;20.63;;;9.45;;
22644;SDS011;11489;50.834;6.752;2024-01-06T14:34:08;21.38;;;9.95;;